Terminal Aerodrome Forecast
Issued by NWS

Home | Current Version | Previous Version | Text Only | Print | Product List | Glossary On
Versions: 1 2 3 4 5 6 7 8 9 10 11 12 13 14 15 16 17 18 19 20 21 22 23 24 25 26 27 28 29
374
FTUS41 KBUF 022200 AAA
TAFJHW
TAF AMD
KJHW 022200Z 0222/0318 28010G20KT P6SM VCSH BKN025
     FM030300 28014KT 3SM -SHSN OVC015
     FM030700 30010KT 6SM BR VCSH BKN009
     FM031200 30012KT P6SM VCSH BKN025
      AMD LTD TO CLD VIS AND WIND=

USA.gov is the U.S. government's official web portal to all federal, state and local government web resources and services.